Time;durP1;ratioP1;P1;durP2;ratioP2;P2;SDS_P1;SDS_P2;PMS_P1;PMS_P2;Temp;Humidity;BMP_temperature;BMP_pressure;BME280_temperature;BME280_humidity;BME280_pressure;Samples;Min_cycle;Max_cycle;Signal;HPM_P1;HPM_P2
2024/01/05 04:01:06;;;;;;;1.80;1.00;;;24.10;30.50;;;;;;5651057;23;45980;-86
2024/01/05 04:03:32;;;;;;;2.45;1.20;;;24.10;30.50;;;;;;4963857;28;46523;-84
2024/01/05 04:05:58;;;;;;;2.05;1.40;;;24.00;30.50;;;;;;4987811;28;45543;-85
2024/01/05 04:08:24;;;;;;;1.73;1.17;;;24.00;30.40;;;;;;4961335;28;46061;-84
2024/01/05 04:10:49;;;;;;;1.70;1.00;;;24.00;30.50;;;;;;4962436;28;45837;-85
2024/01/05 04:13:15;;;;;;;2.47;1.30;;;24.00;30.50;;;;;;4965136;28;46853;-85
2024/01/05 04:15:40;;;;;;;2.73;1.30;;;24.10;30.50;;;;;;4986209;28;45285;-84
2024/01/05 04:18:08;;;;;;;2.00;1.15;;;24.00;30.50;;;;;;5000870;28;59481;-85
2024/01/05 04:20:34;;;;;;;1.63;1.13;;;24.00;30.50;;;;;;4981332;28;45225;-84
2024/01/05 04:23:00;;;;;;;1.35;0.90;;;24.10;30.50;;;;;;5017408;28;46074;-85
2024/01/05 04:25:26;;;;;;;1.63;1.08;;;24.00;30.50;;;;;;4970226;28;45111;-83
2024/01/05 04:27:52;;;;;;;1.90;1.17;;;23.90;30.40;;;;;;4969651;28;45251;-84
2024/01/05 04:30:21;;;;;;;2.42;1.10;;;24.00;30.50;;;;;;4993790;28;45480;-85
2024/01/05 04:32:47;;;;;;;1.90;1.10;;;24.00;30.50;;;;;;4984960;28;45918;-84
2024/01/05 04:35:13;;;;;;;2.03;1.15;;;24.00;30.50;;;;;;4977139;28;45058;-85
2024/01/05 04:37:39;;;;;;;1.52;0.93;;;24.00;30.50;;;;;;4980615;28;45398;-85
2024/01/05 04:40:06;;;;;;;1.67;0.90;;;24.00;30.50;;;;;;4982103;28;45668;-85
2024/01/05 04:42:33;;;;;;;1.45;1.00;;;23.90;30.40;;;;;;4941431;28;48103;-84
2024/01/05 04:44:58;;;;;;;3.17;1.00;;;24.00;30.50;;;;;;5001164;28;45099;-85
2024/01/05 04:47:24;;;;;;;1.60;1.03;;;23.90;30.40;;;;;;4969291;28;45724;-84
2024/01/05 04:49:50;;;;;;;1.87;1.00;;;23.90;30.40;;;;;;4985431;28;45473;-84
2024/01/05 04:52:16;;;;;;;1.80;0.93;;;23.90;30.40;;;;;;4958658;28;47173;-84
2024/01/05 04:54:42;;;;;;;1.48;0.90;;;23.90;30.50;;;;;;5004340;28;45716;-84
2024/01/05 04:57:08;;;;;;;1.25;0.90;;;23.90;30.40;;;;;;4980990;28;45527;-84
2024/01/05 04:59:34;;;;;;;1.90;1.00;;;23.90;30.50;;;;;;4963660;28;45527;-84
2024/01/05 05:01:59;;;;;;;1.70;1.00;;;23.90;30.40;;;;;;4952119;28;46182;-84
2024/01/05 05:04:25;;;;;;;1.98;1.08;;;23.90;30.50;;;;;;4961457;28;45278;-84
2024/01/05 05:06:51;;;;;;;1.70;1.00;;;23.90;30.40;;;;;;4965609;28;45490;-83
2024/01/05 05:09:16;;;;;;;1.90;1.00;;;23.80;30.40;;;;;;4982317;28;45663;-85
2024/01/05 05:11:42;;;;;;;3.10;1.23;;;23.80;30.40;;;;;;4974816;28;45922;-83
2024/01/05 05:14:08;;;;;;;1.83;1.10;;;23.80;30.40;;;;;;4991621;28;45499;-82
2024/01/05 05:16:35;;;;;;;1.83;0.93;;;23.80;30.50;;;;;;4994501;28;44945;-84
2024/01/05 05:19:01;;;;;;;1.63;0.90;;;23.80;30.50;;;;;;4957210;28;45142;-84
2024/01/05 05:21:27;;;;;;;1.70;0.90;;;23.80;30.40;;;;;;4992971;28;46291;-84
2024/01/05 05:23:53;;;;;;;1.57;0.90;;;23.80;30.40;;;;;;4998098;28;45023;-84
2024/01/05 05:26:19;;;;;;;1.80;0.90;;;23.80;30.40;;;;;;4999476;28;45063;-84
2024/01/05 05:28:45;;;;;;;1.23;0.88;;;23.80;30.40;;;;;;4983210;28;45512;-83
2024/01/05 05:31:11;;;;;;;1.73;0.90;;;23.80;30.50;;;;;;4965668;28;46328;-84
2024/01/05 05:33:37;;;;;;;1.48;0.90;;;23.80;30.40;;;;;;4987235;28;45263;-84
2024/01/05 05:36:04;;;;;;;1.65;0.93;;;23.80;30.50;;;;;;4992232;28;45316;-84
2024/01/05 05:38:30;;;;;;;2.80;1.30;;;23.80;30.50;;;;;;4996150;28;45918;-84
2024/01/05 05:40:56;;;;;;;1.83;0.93;;;23.80;30.40;;;;;;5012172;28;45353;-84
2024/01/05 05:43:22;;;;;;;1.60;0.93;;;23.70;30.40;;;;;;4997559;28;45314;-83
2024/01/05 05:45:49;;;;;;;1.50;0.90;;;23.70;30.40;;;;;;4953024;28;45379;-84
2024/01/05 05:48:15;;;;;;;2.20;1.10;;;23.80;30.50;;;;;;4989876;28;45253;-83
2024/01/05 05:50:41;;;;;;;1.70;0.90;;;23.80;30.50;;;;;;4994245;28;46508;-84
2024/01/05 05:53:08;;;;;;;1.80;1.00;;;23.70;30.40;;;;;;4980638;28;45407;-83
2024/01/05 05:55:34;;;;;;;1.77;1.00;;;23.70;30.40;;;;;;4996965;28;45429;-84
2024/01/05 05:57:59;;;;;;;2.00;1.10;;;23.70;30.40;;;;;;4998009;28;45320;-84
2024/01/05 06:00:26;;;;;;;2.00;1.10;;;23.70;30.40;;;;;;4977946;28;46371;-84
2024/01/05 06:02:52;;;;;;;2.15;1.00;;;23.70;30.40;;;;;;5000447;28;45111;-84
2024/01/05 06:05:18;;;;;;;1.80;1.00;;;23.70;30.40;;;;;;4984829;28;46389;-84
2024/01/05 06:07:44;;;;;;;2.13;1.13;;;23.70;30.50;;;;;;4977630;28;45681;-84
2024/01/05 06:10:10;;;;;;;1.83;1.03;;;23.70;30.50;;;;;;5013651;28;45285;-84
2024/01/05 06:12:36;;;;;;;1.65;1.10;;;23.70;30.50;;;;;;4996995;28;45391;-84
2024/01/05 06:15:03;;;;;;;1.40;0.93;;;23.70;30.50;;;;;;4990031;28;45428;-84
2024/01/05 06:17:32;;;;;;;0.93;0.73;;;23.70;30.50;;;;;;4991163;28;46246;-84
2024/01/05 06:19:58;;;;;;;1.77;0.90;;;23.60;30.50;;;;;;4994311;28;46430;-84
2024/01/05 06:22:24;;;;;;;2.58;1.10;;;23.70;30.50;;;;;;4987785;28;44669;-84
2024/01/05 06:24:50;;;;;;;2.10;1.00;;;23.60;30.40;;;;;;4998522;28;45596;-84
2024/01/05 06:27:16;;;;;;;1.97;1.07;;;23.60;30.50;;;;;;5006006;28;45513;-84
2024/01/05 06:29:41;;;;;;;1.73;1.00;;;23.60;30.50;;;;;;4982399;28;46002;-83
2024/01/05 06:32:08;;;;;;;1.23;0.80;;;23.60;30.50;;;;;;4976957;28;45303;-84
2024/01/05 06:34:34;;;;;;;1.90;1.00;;;23.60;30.50;;;;;;5002999;28;45590;-84
2024/01/05 06:37:00;;;;;;;1.80;1.02;;;23.70;30.50;;;;;;4989797;28;45386;-82
2024/01/05 06:39:27;;;;;;;2.28;0.88;;;23.60;30.50;;;;;;4975734;28;45874;-84
2024/01/05 06:41:53;;;;;;;2.03;0.90;;;23.60;30.50;;;;;;4995103;28;45170;-84
2024/01/05 06:44:19;;;;;;;1.90;0.80;;;23.60;30.50;;;;;;5002335;28;45291;-83
2024/01/05 06:46:45;;;;;;;1.08;0.77;;;23.50;30.50;;;;;;4985768;28;44980;-84
2024/01/05 06:49:11;;;;;;;2.05;1.00;;;23.60;30.50;;;;;;5002152;28;46142;-83
2024/01/05 06:51:40;;;;;;;2.00;0.93;;;23.60;30.50;;;;;;4991084;28;45269;-83
2024/01/05 06:54:06;;;;;;;2.05;1.13;;;23.50;30.40;;;;;;5002591;28;45619;-84
2024/01/05 06:56:32;;;;;;;1.40;0.90;;;23.50;30.40;;;;;;4996155;28;44887;-85
2024/01/05 06:59:02;;;;;;;1.30;0.90;;;23.60;30.50;;;;;;4968560;28;45235;-83
2024/01/05 07:01:28;;;;;;;1.90;0.90;;;23.50;30.40;;;;;;4974532;28;45351;-82
2024/01/05 07:03:54;;;;;;;2.15;1.10;;;23.50;30.50;;;;;;5008445;28;45259;-83
2024/01/05 07:06:20;;;;;;;2.00;1.03;;;23.50;30.40;;;;;;4984374;28;45542;-83
2024/01/05 07:08:46;;;;;;;2.38;1.10;;;23.50;30.40;;;;;;5003865;28;46046;-83
2024/01/05 07:11:24;;;;;;;2.05;1.00;;;23.50;31.00;;;;;;4996246;28;45227;-83
2024/01/05 07:13:50;;;;;;;2.60;1.10;;;23.50;30.40;;;;;;4974863;28;44877;-83
2024/01/05 07:16:17;;;;;;;2.00;1.20;;;23.50;30.40;;;;;;4953813;28;45528;-83
2024/01/05 07:18:44;;;;;;;2.45;1.30;;;23.50;30.40;;;;;;4997547;28;46194;-82
2024/01/05 07:21:10;;;;;;;1.83;1.27;;;23.50;30.50;;;;;;4979035;28;45965;-83
2024/01/05 07:23:39;;;;;;;2.23;1.40;;;23.50;30.40;;;;;;4997158;28;45454;-83
2024/01/05 07:26:05;;;;;;;3.15;1.40;;;23.50;30.40;;;;;;5002220;28;45284;-83
2024/01/05 07:28:30;;;;;;;2.30;1.42;;;23.50;30.50;;;;;;5003554;28;45200;-83
2024/01/05 07:30:56;;;;;;;3.43;1.70;;;23.50;30.50;;;;;;4939852;28;45539;-83
2024/01/05 07:33:22;;;;;;;2.67;1.63;;;23.50;30.50;;;;;;5003491;28;45267;-83
2024/01/05 07:35:48;;;;;;;2.60;1.60;;;23.40;30.50;;;;;;4970861;28;45473;-83
2024/01/05 07:38:14;;;;;;;2.40;1.50;;;23.40;30.40;;;;;;5001620;28;47238;-83
2024/01/05 07:40:40;;;;;;;2.75;1.58;;;23.40;30.40;;;;;;4996840;28;46767;-83
2024/01/05 07:43:07;;;;;;;2.50;1.50;;;23.40;30.50;;;;;;5020438;28;45180;-83
2024/01/05 07:45:33;;;;;;;2.38;1.60;;;23.40;30.40;;;;;;5012130;28;45257;-83
2024/01/05 07:47:59;;;;;;;2.70;1.60;;;23.40;30.40;;;;;;4980951;28;47092;-83
2024/01/05 07:50:24;;;;;;;2.38;1.63;;;23.40;30.50;;;;;;4997222;28;44873;-83
2024/01/05 07:52:51;;;;;;;2.83;1.70;;;23.40;30.50;;;;;;4967990;28;45426;-83
2024/01/05 07:55:17;;;;;;;2.20;1.60;;;23.40;30.50;;;;;;4995451;28;45217;-81
2024/01/05 07:57:43;;;;;;;3.17;1.80;;;23.40;30.50;;;;;;4990102;28;46188;-83
2024/01/05 08:00:13;;;;;;;3.03;1.80;;;23.30;30.50;;;;;;4986049;28;45199;-81
2024/01/05 08:02:39;;;;;;;2.70;1.70;;;23.40;30.50;;;;;;4995056;28;45306;-83
2024/01/05 08:05:07;;;;;;;2.60;1.65;;;23.30;30.50;;;;;;4985375;28;45388;-82
2024/01/05 08:07:32;;;;;;;2.40;1.58;;;23.30;30.50;;;;;;5001465;28;46679;-82
2024/01/05 08:09:58;;;;;;;2.83;1.83;;;23.30;30.50;;;;;;4978464;28;45242;-83
2024/01/05 08:12:24;;;;;;;2.40;1.57;;;23.30;30.40;;;;;;4989311;28;45074;-82
2024/01/05 08:14:51;;;;;;;3.50;1.63;;;23.30;30.50;;;;;;4986928;28;45102;-83
2024/01/05 08:17:20;;;;;;;3.00;1.60;;;23.30;30.40;;;;;;4996421;28;46936;-82
2024/01/05 08:19:46;;;;;;;2.15;1.50;;;23.30;30.50;;;;;;4991643;28;45393;-82
2024/01/05 08:22:12;;;;;;;3.50;1.70;;;23.30;30.50;;;;;;5005995;28;45387;-83
2024/01/05 08:24:37;;;;;;;2.97;1.70;;;23.30;30.50;;;;;;5011070;28;45471;-82
2024/01/05 08:27:04;;;;;;;2.50;1.50;;;23.30;30.50;;;;;;4980655;28;46870;-82
2024/01/05 08:29:30;;;;;;;3.22;1.60;;;23.30;30.50;;;;;;5010544;28;46606;-83
2024/01/05 08:31:58;;;;;;;2.37;1.43;;;23.30;30.50;;;;;;4976890;28;45394;-82
2024/01/05 08:34:24;;;;;;;3.10;1.70;;;23.30;30.50;;;;;;5008449;28;44884;-82
2024/01/05 08:36:50;;;;;;;2.35;1.60;;;23.30;30.50;;;;;;4980494;28;46314;-82
2024/01/05 08:39:16;;;;;;;2.95;1.60;;;23.30;30.50;;;;;;4984088;28;45319;-83
2024/01/05 08:41:44;;;;;;;2.20;1.53;;;23.20;30.40;;;;;;4983706;28;44967;-82
2024/01/05 08:44:10;;;;;;;2.10;1.50;;;23.20;30.40;;;;;;4999897;28;45415;-82
2024/01/05 08:46:36;;;;;;;3.60;1.73;;;23.20;30.50;;;;;;4976263;28;46243;-82
2024/01/05 08:49:02;;;;;;;2.67;1.60;;;23.30;30.50;;;;;;5003234;28;45330;-82
2024/01/05 08:51:28;;;;;;;3.10;1.47;;;23.20;30.50;;;;;;5003658;28;45228;-83
2024/01/05 08:53:54;;;;;;;1.83;1.40;;;23.20;30.50;;;;;;4991576;28;45331;-83
2024/01/05 08:56:19;;;;;;;2.28;1.40;;;23.20;30.50;;;;;;5000316;28;46363;-82
2024/01/05 08:58:45;;;;;;;3.10;1.50;;;23.20;31.10;;;;;;4987977;28;45358;-82
2024/01/05 09:01:11;;;;;;;2.67;1.70;;;23.20;30.50;;;;;;4986705;28;45189;-83
2024/01/05 09:03:37;;;;;;;2.42;1.38;;;23.20;30.50;;;;;;5006880;28;45327;-82
2024/01/05 09:06:04;;;;;;;2.00;1.20;;;23.20;30.50;;;;;;4979597;28;47290;-83
2024/01/05 09:08:30;;;;;;;2.30;1.30;;;23.20;30.60;;;;;;5001743;28;45410;-82
2024/01/05 09:10:56;;;;;;;2.13;1.40;;;23.20;30.50;;;;;;4982683;28;45515;-82
2024/01/05 09:13:22;;;;;;;1.60;1.20;;;23.20;30.60;;;;;;5006973;28;45415;-84
2024/01/05 09:15:48;;;;;;;2.00;1.30;;;23.20;30.60;;;;;;4959133;28;46574;-83
2024/01/05 09:18:13;;;;;;;2.28;1.45;;;23.10;30.50;;;;;;4980605;28;45303;-83
2024/01/05 09:20:39;;;;;;;2.60;1.50;;;23.10;30.50;;;;;;4983398;28;45328;-83
2024/01/05 09:23:06;;;;;;;2.30;1.37;;;23.10;30.60;;;;;;4989839;28;45254;-83
2024/01/05 09:25:32;;;;;;;3.13;1.60;;;23.10;30.60;;;;;;5002853;28;45946;-84
2024/01/05 09:28:01;;;;;;;2.70;1.60;;;23.10;30.50;;;;;;5002220;28;44662;-83
2024/01/05 09:30:27;;;;;;;1.88;1.25;;;23.10;30.60;;;;;;4980408;28;45663;-83
2024/01/05 09:32:53;;;;;;;2.42;1.30;;;23.10;30.60;;;;;;4997138;28;45253;-83
2024/01/05 09:35:21;;;;;;;2.00;1.13;;;23.10;31.20;;;;;;4998149;28;46369;-83
2024/01/05 09:37:47;;;;;;;2.87;1.47;;;23.10;30.60;;;;;;4984381;28;45105;-83
2024/01/05 09:40:13;;;;;;;2.33;1.13;;;23.10;30.60;;;;;;5014325;28;44612;-83
2024/01/05 09:42:40;;;;;;;2.25;1.25;;;23.10;30.60;;;;;;4949664;28;45478;-84
2024/01/05 09:45:09;;;;;;;2.20;1.20;;;23.10;30.60;;;;;;4952803;28;46216;-83
2024/01/05 09:47:35;;;;;;;3.30;1.50;;;23.10;30.60;;;;;;4966942;28;45086;-84
2024/01/05 09:50:02;;;;;;;2.28;1.30;;;23.10;30.60;;;;;;5013284;28;45906;-83
2024/01/05 09:52:31;;;;;;;1.93;1.30;;;23.10;30.60;;;;;;4985396;28;45678;-83
2024/01/05 09:54:57;;;;;;;1.95;1.20;;;23.00;30.60;;;;;;4997760;28;45540;-84
2024/01/05 09:57:23;;;;;;;2.00;1.30;;;23.10;30.60;;;;;;4990822;28;45637;-83
2024/01/05 09:59:48;;;;;;;1.70;1.25;;;23.10;30.70;;;;;;4983988;28;45582;-83
2024/01/05 10:02:32;;;;;;;1.92;1.23;;;23.10;30.70;;;;;;4966925;28;44641;-84
2024/01/05 10:04:57;;;;;;;2.70;1.20;;;23.00;30.60;;;;;;4989139;28;45213;-84
2024/01/05 10:07:23;;;;;;;2.17;1.33;;;23.00;30.60;;;;;;5001326;28;44995;-84
2024/01/05 10:09:53;;;;;;;2.40;1.23;;;23.00;30.70;;;;;;4956009;28;45316;-84
2024/01/05 10:12:19;;;;;;;2.38;1.40;;;23.00;30.60;;;;;;4970951;28;45274;-84
2024/01/05 10:14:49;;;;;;;1.50;1.03;;;23.00;30.70;;;;;;4970825;28;46172;-84
2024/01/05 10:17:15;;;;;;;2.20;1.50;;;23.00;30.70;;;;;;5007104;28;45286;-83
2024/01/05 10:19:41;;;;;;;1.83;1.20;;;23.00;30.70;;;;;;4985876;28;45488;-83
2024/01/05 10:22:11;;;;;;;1.98;1.40;;;23.00;30.70;;;;;;4996743;28;45424;-83
2024/01/05 10:24:37;;;;;;;1.90;1.25;;;22.90;30.70;;;;;;4997361;28;46239;-83
2024/01/05 10:27:09;;;;;;;2.22;1.42;;;23.00;30.70;;;;;;4961065;28;45278;-83
2024/01/05 10:29:44;;;;;;;2.17;1.27;;;23.00;30.80;;;;;;4970587;28;45979;-83
2024/01/05 10:32:17;;;;;;;2.00;1.20;;;22.90;30.70;;;;;;4944700;28;45571;-83
2024/01/05 10:34:47;;;;;;;1.65;1.20;;;23.00;30.80;;;;;;4983462;28;47359;-83
2024/01/05 10:37:14;;;;;;;2.05;1.10;;;23.00;30.80;;;;;;4998250;28;45324;-84
2024/01/05 10:39:47;;;;;;;1.92;1.33;;;22.90;30.80;;;;;;4987057;28;45275;-83
2024/01/05 10:42:25;;;;;;;2.30;1.30;;;23.00;30.80;;;;;;4943047;28;45408;-83
2024/01/05 10:44:52;;;;;;;2.30;1.30;;;22.90;30.80;;;;;;5002384;28;45111;-83
2024/01/05 10:47:23;;;;;;;2.13;1.38;;;22.90;30.80;;;;;;4956777;28;45118;-83
2024/01/05 10:49:51;;;;;;;2.05;1.23;;;22.90;30.80;;;;;;4992844;28;44845;-83
2024/01/05 10:52:23;;;;;;;2.28;1.40;;;22.90;30.80;;;;;;4971754;28;45471;-83
2024/01/05 10:54:52;;;;;;;2.10;1.20;;;22.90;30.90;;;;;;4963561;28;46203;-83
2024/01/05 10:57:18;;;;;;;2.00;1.23;;;22.90;30.90;;;;;;4992573;28;45394;-83
2024/01/05 10:59:48;;;;;;;1.88;1.20;;;22.90;30.90;;;;;;4968104;28;45126;-83
2024/01/05 11:02:31;;;;;;;2.45;1.40;;;22.90;30.90;;;;;;4974321;28;44692;-83
2024/01/05 11:05:09;;;;;;;1.92;1.33;;;22.90;30.90;;;;;;4999215;28;45573;-83
2024/01/05 11:07:35;;;;;;;1.55;1.20;;;22.90;30.90;;;;;;5006122;28;44912;-82
2024/01/05 11:10:13;;;;;;;3.45;1.50;;;22.90;31.00;;;;;;4998907;28;45537;-83
2024/01/05 11:13:16;;;;;;;1.75;1.20;;;22.90;31.00;;;;;;5004664;28;45536;-83
2024/01/05 11:16:16;;;;;;;1.57;1.10;;;22.90;31.00;;;;;;4983122;28;46436;-83
2024/01/05 11:19:15;;;;;;;1.98;1.20;;;22.90;31.00;;;;;;4981022;28;45330;-83
2024/01/05 11:21:55;;;;;;;2.30;1.10;;;22.90;31.00;;;;;;4972556;28;45754;-84
2024/01/05 11:24:22;;;;;;;1.38;0.98;;;22.90;31.10;;;;;;4982437;28;45749;-83
2024/01/05 11:26:47;;;;;;;1.65;1.10;;;22.90;31.10;;;;;;4962220;28;45949;-84
2024/01/05 11:29:13;;;;;;;2.20;1.10;;;22.90;31.10;;;;;;4967643;28;45249;-83
2024/01/05 11:31:45;;;;;;;2.30;1.20;;;22.90;31.10;;;;;;4952944;28;45339;-83
2024/01/05 11:34:34;;;;;;;2.85;1.20;;;22.80;31.10;;;;;;4992491;28;45630;-83
2024/01/05 11:37:06;;;;;;;1.97;1.30;;;22.80;31.10;;;;;;4996454;28;45299;-83
2024/01/05 11:39:49;;;;;;;1.40;1.08;;;22.80;31.10;;;;;;5012891;28;45616;-83
2024/01/05 11:42:24;;;;;;;1.77;1.20;;;22.80;31.10;;;;;;4946520;28;45412;-83
2024/01/05 11:44:50;;;;;;;1.90;1.35;;;22.80;31.10;;;;;;4998545;28;45239;-83
2024/01/05 11:47:45;;;;;;;1.90;1.20;;;22.80;31.10;;;;;;4963589;28;47185;-83
2024/01/05 11:50:26;;;;;;;2.72;1.80;;;22.80;31.20;;;;;;4971489;28;45070;-83
2024/01/05 11:53:08;;;;;;;4.60;2.50;;;22.80;31.20;;;;;;5012828;28;45388;-83
2024/01/05 11:55:39;;;;;;;3.90;2.60;;;22.80;31.30;;;;;;4979433;28;44755;-83
2024/01/05 11:58:31;;;;;;;3.42;2.25;;;22.80;31.30;;;;;;4989202;28;46741;-82
2024/01/05 12:01:19;;;;;;;3.67;2.30;;;22.80;31.30;;;;;;4987116;28;45522;-83
2024/01/05 12:03:45;;;;;;;3.13;2.22;;;22.70;31.30;;;;;;4987170;28;44925;-83
2024/01/05 12:06:12;;;;;;;3.17;2.15;;;22.70;31.30;;;;;;4983260;28;45209;-84
2024/01/05 12:08:38;;;;;;;2.85;1.80;;;22.80;31.40;;;;;;4987461;28;46231;-84
2024/01/05 12:11:05;;;;;;;2.92;1.75;;;22.70;31.50;;;;;;4998541;28;44704;-83
2024/01/05 12:13:32;;;;;;;2.10;1.55;;;22.70;31.40;;;;;;5007138;28;45369;-84
2024/01/05 12:16:04;;;;;;;2.88;1.77;;;22.70;31.50;;;;;;4958797;28;45628;-83
2024/01/05 12:18:31;;;;;;;3.33;1.70;;;22.70;31.50;;;;;;4998102;28;45685;-83
2024/01/05 12:20:58;;;;;;;2.90;1.50;;;22.80;31.60;;;;;;4979742;28;45330;-84
2024/01/05 12:23:51;;;;;;;3.47;1.60;;;22.70;31.60;;;;;;4988206;28;45345;-83
2024/01/05 12:26:17;;;;;;;3.15;1.40;;;22.70;31.60;;;;;;5006737;28;45377;-83
2024/01/05 12:28:43;;;;;;;2.60;1.40;;;22.80;31.70;;;;;;4988637;28;45335;-83
2024/01/05 12:31:09;;;;;;;3.08;1.60;;;22.80;31.70;;;;;;4991941;28;45358;-83
2024/01/05 12:33:37;;;;;;;1.70;1.30;;;22.80;31.70;;;;;;4981964;28;46135;-84
2024/01/05 12:36:09;;;;;;;2.13;1.40;;;22.80;31.70;;;;;;5014856;28;45845;-84
2024/01/05 12:38:35;;;;;;;2.60;1.48;;;22.80;32.40;;;;;;5019157;28;45978;-84
2024/01/05 12:41:12;;;;;;;2.30;1.37;;;22.80;31.80;;;;;;4972676;28;45035;-84
2024/01/05 12:43:58;;;;;;;2.40;1.30;;;22.90;31.80;;;;;;4985648;28;45372;-83
2024/01/05 12:46:24;;;;;;;2.72;1.40;;;22.90;31.90;;;;;;4998102;28;45281;-84
2024/01/05 12:48:50;;;;;;;2.70;1.40;;;22.90;31.90;;;;;;4980055;28;46447;-84
2024/01/05 12:51:19;;;;;;;1.83;1.30;;;22.90;31.90;;;;;;4997301;28;45172;-84
2024/01/05 12:54:05;;;;;;;1.97;1.20;;;22.90;31.90;;;;;;4966222;28;45340;-84
2024/01/05 12:56:31;;;;;;;2.17;1.52;;;22.90;31.90;;;;;;5001465;28;46193;-83
2024/01/05 12:58:56;;;;;;;2.43;1.23;;;22.90;31.90;;;;;;5001229;28;45357;-84
2024/01/05 13:01:23;;;;;;;2.77;1.37;;;23.00;32.00;;;;;;4985382;28;45409;-82
2024/01/05 13:03:51;;;;;;;1.98;1.20;;;23.00;32.00;;;;;;5001947;28;45266;-84
2024/01/05 13:06:18;;;;;;;3.00;1.58;;;23.00;32.00;;;;;;4980458;28;45757;-84
2024/01/05 13:08:44;;;;;;;2.45;1.20;;;23.00;32.00;;;;;;4992714;28;46285;-83
2024/01/05 13:11:10;;;;;;;2.72;1.50;;;23.10;32.10;;;;;;4995336;28;45148;-84
2024/01/05 13:13:36;;;;;;;2.05;1.25;;;23.00;32.00;;;;;;4998597;28;45230;-83
2024/01/05 13:16:04;;;;;;;1.92;1.20;;;23.10;32.10;;;;;;4965618;28;45878;-83
2024/01/05 13:18:30;;;;;;;2.85;1.20;;;23.10;32.10;;;;;;5011900;28;45292;-83
2024/01/05 13:20:56;;;;;;;2.35;1.13;;;23.10;32.10;;;;;;5003047;28;45234;-85
2024/01/05 13:23:23;;;;;;;2.00;1.10;;;23.10;32.10;;;;;;5018893;28;45213;-84
2024/01/05 13:25:50;;;;;;;4.03;1.60;;;23.20;32.10;;;;;;5001900;28;44725;-84
2024/01/05 13:28:16;;;;;;;2.80;1.45;;;23.20;32.10;;;;;;5022185;28;45850;-84
2024/01/05 13:30:42;;;;;;;2.17;1.30;;;23.20;32.10;;;;;;4997751;28;45310;-84
2024/01/05 13:33:08;;;;;;;2.17;1.48;;;23.20;32.10;;;;;;4994582;28;45536;-83
2024/01/05 13:35:34;;;;;;;2.65;1.30;;;23.20;32.10;;;;;;4981243;28;45003;-84
2024/01/05 13:37:59;;;;;;;2.42;1.38;;;23.20;32.10;;;;;;5004681;28;46434;-84
2024/01/05 13:40:26;;;;;;;2.40;1.38;;;23.30;32.20;;;;;;4960524;28;45247;-84
2024/01/05 13:42:52;;;;;;;2.53;1.50;;;23.30;32.20;;;;;;5007616;28;44983;-84
2024/01/05 13:45:21;;;;;;;2.00;1.20;;;23.30;32.10;;;;;;4994088;28;45571;-83
2024/01/05 13:47:46;;;;;;;2.42;1.33;;;23.40;32.20;;;;;;4980773;28;46179;-84
2024/01/05 13:50:12;;;;;;;2.17;1.40;;;23.40;32.20;;;;;;4971928;28;45693;-84
2024/01/05 13:55:33;;;;;;;1.98;1.30;;;23.40;32.20;;;;;;4989397;28;46073;-84
2024/01/05 13:57:59;;;;;;;2.20;1.33;;;23.50;32.10;;;;;;4951829;28;47392;-83
2024/01/05 14:00:25;;;;;;;2.33;1.50;;;23.50;32.10;;;;;;4939573;28;45974;-83
2024/01/05 14:02:51;;;;;;;3.63;1.65;;;23.50;32.10;;;;;;4948289;28;45795;-84
2024/01/05 14:05:17;;;;;;;3.10;1.70;;;23.50;32.10;;;;;;4950402;28;45483;-83
2024/01/05 14:07:44;;;;;;;2.47;1.50;;;23.50;32.10;;;;;;4952310;28;46433;-84
2024/01/05 14:10:09;;;;;;;3.15;1.85;;;23.60;32.10;;;;;;4945521;28;46394;-83
2024/01/05 14:12:35;;;;;;;3.65;1.80;;;23.60;32.10;;;;;;4903212;28;45529;-84
2024/01/05 14:15:03;;;;;;;3.10;1.77;;;23.70;32.00;;;;;;4952810;28;45352;-84
2024/01/05 14:17:30;;;;;;;2.92;1.83;;;23.70;32.00;;;;;;4914345;28;46644;-83
2024/01/05 14:19:55;;;;;;;4.85;2.00;;;23.70;32.00;;;;;;4946594;28;45519;-83
2024/01/05 14:22:23;;;;;;;4.17;2.07;;;23.70;32.00;;;;;;4918831;28;45688;-84
2024/01/05 14:24:49;;;;;;;3.83;1.90;;;23.80;32.10;;;;;;4951589;28;45285;-84
2024/01/05 14:27:14;;;;;;;3.50;2.00;;;23.80;32.00;;;;;;4931498;28;46206;-84
2024/01/05 14:29:41;;;;;;;4.95;2.13;;;23.80;32.00;;;;;;4928098;28;45298;-84
2024/01/05 14:32:07;;;;;;;4.55;2.22;;;23.90;32.00;;;;;;4930058;28;45454;-84
2024/01/05 14:34:33;;;;;;;4.30;2.25;;;23.90;31.90;;;;;;4938513;28;45287;-84
2024/01/05 14:36:59;;;;;;;3.53;1.90;;;23.90;31.90;;;;;;4936671;28;46276;-84
2024/01/05 14:39:28;;;;;;;3.17;2.08;;;23.90;31.90;;;;;;4952411;28;44618;-83
2024/01/05 14:41:54;;;;;;;3.53;2.22;;;23.90;31.80;;;;;;4953553;28;45666;-83
2024/01/05 14:44:20;;;;;;;3.97;2.53;;;24.00;31.90;;;;;;4942037;28;45222;-84
2024/01/05 14:46:45;;;;;;;4.10;2.40;;;24.00;31.90;;;;;;4933365;28;47457;-84
2024/01/05 14:49:11;;;;;;;4.47;2.40;;;24.00;31.90;;;;;;4939593;28;45290;-84
2024/01/05 14:51:38;;;;;;;4.38;2.63;;;24.10;31.80;;;;;;4933297;28;45482;-84
2024/01/05 14:54:04;;;;;;;5.35;2.72;;;24.10;31.80;;;;;;4959892;28;45471;-84
2024/01/05 14:56:30;;;;;;;4.70;2.80;;;24.10;31.80;;;;;;4954167;28;46276;-84
2024/01/05 14:58:56;;;;;;;4.75;3.00;;;24.20;31.80;;;;;;4942891;28;44993;-85
2024/01/05 15:01:21;;;;;;;5.47;2.92;;;24.20;31.80;;;;;;4919185;28;45506;-84
2024/01/05 15:03:47;;;;;;;4.43;2.70;;;24.20;31.80;;;;;;4984713;28;45879;-84
2024/01/05 15:06:13;;;;;;;5.78;2.80;;;24.20;31.70;;;;;;4970618;28;46450;-83
2024/01/05 15:08:39;;;;;;;5.20;2.87;;;24.30;31.70;;;;;;4971829;28;45296;-84
2024/01/05 15:11:05;;;;;;;4.57;2.90;;;24.30;31.70;;;;;;4955808;28;45594;-84
2024/01/05 15:13:31;;;;;;;6.55;2.83;;;24.30;31.70;;;;;;4975071;28;46076;-84
2024/01/05 15:15:58;;;;;;;3.92;2.60;;;24.40;31.70;;;;;;4938108;28;46207;-84
2024/01/05 15:18:24;;;;;;;4.13;2.58;;;24.40;31.70;;;;;;4960022;28;45421;-84
2024/01/05 15:20:49;;;;;;;5.28;2.85;;;24.40;31.60;;;;;;4960107;28;45428;-84
2024/01/05 15:23:15;;;;;;;3.63;2.23;;;24.40;31.60;;;;;;4990524;28;44937;-84
2024/01/05 15:25:42;;;;;;;4.53;2.45;;;24.40;31.50;;;;;;4994167;28;45762;-85
2024/01/05 15:28:07;;;;;;;5.05;2.40;;;24.50;31.50;;;;;;4984149;28;45489;-83
2024/01/05 15:30:35;;;;;;;3.35;2.00;;;24.50;31.50;;;;;;4948556;28;45709;-84
2024/01/05 15:33:03;;;;;;;3.07;2.27;;;24.60;31.50;;;;;;4987120;28;45232;-84
2024/01/05 15:35:29;;;;;;;4.35;2.30;;;24.60;31.60;;;;;;4986422;28;45942;-84
2024/01/05 15:37:55;;;;;;;3.23;2.00;;;24.60;31.40;;;;;;4964005;28;44943;-84
2024/01/05 15:40:21;;;;;;;3.05;2.03;;;24.60;31.40;;;;;;4950097;28;45057;-84
2024/01/05 15:42:47;;;;;;;3.88;1.83;;;24.70;31.40;;;;;;4965966;28;45424;-85
2024/01/05 15:45:14;;;;;;;3.77;2.20;;;24.70;32.00;;;;;;4966246;28;46243;-83
2024/01/05 15:47:39;;;;;;;3.30;2.00;;;24.70;31.30;;;;;;4974141;28;46186;-84
2024/01/05 15:50:09;;;;;;;3.80;2.00;;;24.70;31.30;;;;;;4967421;28;45425;-84
2024/01/05 15:52:35;;;;;;;3.90;2.10;;;24.70;31.20;;;;;;4959819;28;45686;-83
2024/01/05 15:55:00;;;;;;;3.45;1.95;;;24.80;31.30;;;;;;4969531;28;47128;-84
2024/01/05 15:57:27;;;;;;;3.93;1.80;;;24.80;31.20;;;;;;4955137;28;46167;-81
2024/01/05 15:59:53;;;;;;;3.47;1.67;;;24.80;31.20;;;;;;4950099;28;45055;-84
2024/01/05 16:02:18;;;;;;;4.10;1.90;;;24.80;31.10;;;;;;4958260;28;45744;-83
2024/01/05 16:04:44;;;;;;;2.25;1.50;;;24.80;31.70;;;;;;4972560;28;45405;-83
2024/01/05 16:07:10;;;;;;;2.87;1.60;;;24.80;31.00;;;;;;4971578;28;45279;-84
2024/01/05 16:09:36;;;;;;;3.17;1.85;;;24.80;31.60;;;;;;4955828;28;45705;-84
2024/01/05 16:12:04;;;;;;;3.03;1.63;;;24.90;31.00;;;;;;4962634;28;45315;-84
2024/01/05 16:14:30;;;;;;;2.83;1.60;;;24.90;31.00;;;;;;4947825;28;46537;-84
2024/01/05 16:16:57;;;;;;;2.77;1.80;;;24.90;30.90;;;;;;4971356;28;45289;-85
2024/01/05 16:19:23;;;;;;;2.75;1.60;;;24.90;31.20;;;;;;4974679;28;45027;-84
2024/01/05 16:21:49;;;;;;;2.13;1.63;;;24.90;30.90;;;;;;4945751;28;45614;-85
2024/01/05 16:24:15;;;;;;;2.63;1.73;;;24.90;30.90;;;;;;4959095;28;47891;-85
2024/01/05 16:26:43;;;;;;;2.85;1.70;;;24.90;30.90;;;;;;4949757;28;44998;-84
2024/01/05 16:29:10;;;;;;;2.30;1.50;;;24.90;30.80;;;;;;4976460;28;45302;-85
2024/01/05 16:31:35;;;;;;;2.60;1.60;;;25.00;30.80;;;;;;4918363;28;45476;-85
2024/01/05 16:34:01;;;;;;;3.35;1.70;;;25.00;30.80;;;;;;4942336;28;45949;-85
2024/01/05 16:36:27;;;;;;;1.98;1.42;;;25.00;30.80;;;;;;4958149;28;45144;-86
2024/01/05 16:38:53;;;;;;;2.42;1.63;;;25.00;30.70;;;;;;4923675;28;44932;-85
2024/01/05 16:41:23;;;;;;;2.72;1.60;;;25.00;30.70;;;;;;4955965;28;44790;-84
2024/01/05 16:43:49;;;;;;;2.70;1.80;;;25.00;30.70;;;;;;4925851;28;46406;-85
2024/01/05 16:46:17;;;;;;;2.40;1.70;;;25.00;31.40;;;;;;4950763;28;45719;-85
2024/01/05 16:48:47;;;;;;;3.10;1.83;;;25.00;30.70;;;;;;4952820;28;45314;-85
2024/01/05 16:51:13;;;;;;;3.30;1.67;;;25.00;30.70;;;;;;4957333;28;45249;-84
2024/01/05 16:53:39;;;;;;;2.80;1.50;;;25.00;30.70;;;;;;4974206;28;45545;-85